sensor_id;sensor_type;location;lat;lon;timestamp;P1;durP1;ratioP1;P2;durP2;ratioP2
71305;SDS011;59097;46.858;18.632;2022-07-29T00:01:37;8.27;;;2.90;;
71305;SDS011;59097;46.858;18.632;2022-07-29T00:04:05;9.13;;;2.90;;
71305;SDS011;59097;46.858;18.632;2022-07-29T00:06:33;4.87;;;2.70;;
71305;SDS011;59097;46.858;18.632;2022-07-29T00:09:01;5.60;;;2.70;;
71305;SDS011;59097;46.858;18.632;2022-07-29T00:11:29;5.68;;;2.80;;
71305;SDS011;59097;46.858;18.632;2022-07-29T00:13:57;6.00;;;2.83;;
71305;SDS011;59097;46.858;18.632;2022-07-29T00:16:25;3.78;;;2.80;;
71305;SDS011;59097;46.858;18.632;2022-07-29T00:18:53;5.68;;;3.10;;
71305;SDS011;59097;46.858;18.632;2022-07-29T00:21:21;5.97;;;3.10;;
71305;SDS011;59097;46.858;18.632;2022-07-29T00:23:49;4.87;;;2.62;;
71305;SDS011;59097;46.858;18.632;2022-07-29T00:26:17;6.97;;;3.08;;
71305;SDS011;59097;46.858;18.632;2022-07-29T00:28:45;7.62;;;2.58;;
71305;SDS011;59097;46.858;18.632;2022-07-29T00:31:13;7.97;;;3.10;;
71305;SDS011;59097;46.858;18.632;2022-07-29T00:33:42;5.53;;;2.77;;
71305;SDS011;59097;46.858;18.632;2022-07-29T00:36:10;6.57;;;2.78;;
71305;SDS011;59097;46.858;18.632;2022-07-29T00:38:38;6.03;;;2.70;;
71305;SDS011;59097;46.858;18.632;2022-07-29T00:41:09;4.32;;;2.92;;
71305;SDS011;59097;46.858;18.632;2022-07-29T00:43:37;7.75;;;2.72;;
71305;SDS011;59097;46.858;18.632;2022-07-29T00:46:05;5.80;;;2.80;;
71305;SDS011;59097;46.858;18.632;2022-07-29T00:48:33;5.82;;;2.83;;
71305;SDS011;59097;46.858;18.632;2022-07-29T00:51:02;4.65;;;3.03;;
71305;SDS011;59097;46.858;18.632;2022-07-29T00:53:31;6.70;;;3.08;;
71305;SDS011;59097;46.858;18.632;2022-07-29T00:56:00;5.78;;;3.08;;
71305;SDS011;59097;46.858;18.632;2022-07-29T00:58:28;7.37;;;3.37;;
71305;SDS011;59097;46.858;18.632;2022-07-29T01:00:56;6.32;;;3.50;;
71305;SDS011;59097;46.858;18.632;2022-07-29T01:03:25;6.90;;;3.47;;
71305;SDS011;59097;46.858;18.632;2022-07-29T01:05:53;4.85;;;3.30;;
71305;SDS011;59097;46.858;18.632;2022-07-29T01:08:22;8.98;;;4.30;;
71305;SDS011;59097;46.858;18.632;2022-07-29T01:10:51;10.10;;;3.50;;
71305;SDS011;59097;46.858;18.632;2022-07-29T01:13:21;13.95;;;3.75;;
71305;SDS011;59097;46.858;18.632;2022-07-29T01:15:51;5.78;;;3.37;;
71305;SDS011;59097;46.858;18.632;2022-07-29T01:30:06;8.48;;;3.50;;
71305;SDS011;59097;46.858;18.632;2022-07-29T01:32:37;6.28;;;3.70;;
71305;SDS011;59097;46.858;18.632;2022-07-29T01:37:45;4.77;;;3.40;;
71305;SDS011;59097;46.858;18.632;2022-07-29T01:43:12;5.82;;;3.40;;
71305;SDS011;59097;46.858;18.632;2022-07-29T01:45:59;7.07;;;3.37;;
71305;SDS011;59097;46.858;18.632;2022-07-29T01:49:06;5.60;;;3.50;;
71305;SDS011;59097;46.858;18.632;2022-07-29T01:51:32;6.63;;;3.30;;
71305;SDS011;59097;46.858;18.632;2022-07-29T01:56:55;7.12;;;3.47;;
71305;SDS011;59097;46.858;18.632;2022-07-29T01:59:26;12.45;;;3.30;;
71305;SDS011;59097;46.858;18.632;2022-07-29T02:01:57;7.07;;;3.25;;
71305;SDS011;59097;46.858;18.632;2022-07-29T02:04:27;10.57;;;3.80;;
71305;SDS011;59097;46.858;18.632;2022-07-29T02:06:58;6.95;;;3.00;;
71305;SDS011;59097;46.858;18.632;2022-07-29T02:09:31;4.25;;;3.67;;
71305;SDS011;59097;46.858;18.632;2022-07-29T02:12:02;7.70;;;3.40;;
71305;SDS011;59097;46.858;18.632;2022-07-29T02:14:33;6.20;;;3.35;;
71305;SDS011;59097;46.858;18.632;2022-07-29T02:17:03;7.93;;;3.60;;
71305;SDS011;59097;46.858;18.632;2022-07-29T02:19:32;6.55;;;3.47;;
71305;SDS011;59097;46.858;18.632;2022-07-29T02:22:01;11.32;;;3.92;;
71305;SDS011;59097;46.858;18.632;2022-07-29T02:24:30;8.82;;;3.70;;
71305;SDS011;59097;46.858;18.632;2022-07-29T02:26:58;5.10;;;3.78;;
71305;SDS011;59097;46.858;18.632;2022-07-29T02:29:28;9.73;;;3.90;;
71305;SDS011;59097;46.858;18.632;2022-07-29T02:31:59;6.53;;;4.18;;
71305;SDS011;59097;46.858;18.632;2022-07-29T02:34:30;7.90;;;3.40;;
71305;SDS011;59097;46.858;18.632;2022-07-29T02:37:00;4.25;;;3.45;;
71305;SDS011;59097;46.858;18.632;2022-07-29T02:39:31;6.22;;;3.50;;
71305;SDS011;59097;46.858;18.632;2022-07-29T02:42:03;7.90;;;3.33;;
71305;SDS011;59097;46.858;18.632;2022-07-29T02:44:34;11.60;;;3.80;;
71305;SDS011;59097;46.858;18.632;2022-07-29T02:50:06;8.82;;;3.65;;
71305;SDS011;59097;46.858;18.632;2022-07-29T02:55:43;7.67;;;4.07;;
71305;SDS011;59097;46.858;18.632;2022-07-29T02:58:15;8.32;;;3.53;;
71305;SDS011;59097;46.858;18.632;2022-07-29T03:01:01;7.43;;;4.15;;
71305;SDS011;59097;46.858;18.632;2022-07-29T03:03:34;6.50;;;4.10;;
71305;SDS011;59097;46.858;18.632;2022-07-29T03:06:04;4.62;;;3.33;;
71305;SDS011;59097;46.858;18.632;2022-07-29T03:08:54;12.67;;;3.93;;
71305;SDS011;59097;46.858;18.632;2022-07-29T03:11:24;6.10;;;3.70;;
71305;SDS011;59097;46.858;18.632;2022-07-29T03:14:13;10.38;;;4.43;;
71305;SDS011;59097;46.858;18.632;2022-07-29T03:16:42;11.05;;;4.50;;
71305;SDS011;59097;46.858;18.632;2022-07-29T03:19:10;7.07;;;3.85;;
71305;SDS011;59097;46.858;18.632;2022-07-29T03:21:38;8.30;;;4.40;;
71305;SDS011;59097;46.858;18.632;2022-07-29T03:24:06;13.90;;;4.30;;
71305;SDS011;59097;46.858;18.632;2022-07-29T03:26:39;13.02;;;4.60;;
71305;SDS011;59097;46.858;18.632;2022-07-29T03:29:07;12.55;;;4.22;;
71305;SDS011;59097;46.858;18.632;2022-07-29T03:31:40;9.00;;;4.03;;
71305;SDS011;59097;46.858;18.632;2022-07-29T03:34:09;8.90;;;3.87;;
71305;SDS011;59097;46.858;18.632;2022-07-29T03:36:37;11.10;;;4.30;;
71305;SDS011;59097;46.858;18.632;2022-07-29T03:39:06;12.93;;;4.40;;
71305;SDS011;59097;46.858;18.632;2022-07-29T03:41:37;11.48;;;4.10;;
71305;SDS011;59097;46.858;18.632;2022-07-29T03:44:06;12.32;;;4.60;;
71305;SDS011;59097;46.858;18.632;2022-07-29T03:46:35;8.13;;;4.67;;
71305;SDS011;59097;46.858;18.632;2022-07-29T03:49:06;9.20;;;4.87;;
71305;SDS011;59097;46.858;18.632;2022-07-29T03:51:35;10.80;;;4.62;;
71305;SDS011;59097;46.858;18.632;2022-07-29T03:54:04;12.07;;;4.55;;
71305;SDS011;59097;46.858;18.632;2022-07-29T03:56:41;9.25;;;4.47;;
71305;SDS011;59097;46.858;18.632;2022-07-29T03:59:15;15.77;;;4.10;;
71305;SDS011;59097;46.858;18.632;2022-07-29T04:01:47;9.82;;;4.25;;
71305;SDS011;59097;46.858;18.632;2022-07-29T04:04:16;9.90;;;4.72;;
71305;SDS011;59097;46.858;18.632;2022-07-29T04:06:45;9.75;;;4.32;;
71305;SDS011;59097;46.858;18.632;2022-07-29T04:09:14;10.07;;;4.95;;
71305;SDS011;59097;46.858;18.632;2022-07-29T04:11:42;12.70;;;4.80;;
71305;SDS011;59097;46.858;18.632;2022-07-29T04:14:31;11.25;;;4.70;;
71305;SDS011;59097;46.858;18.632;2022-07-29T04:17:00;11.32;;;4.93;;
71305;SDS011;59097;46.858;18.632;2022-07-29T04:19:29;15.07;;;4.47;;
71305;SDS011;59097;46.858;18.632;2022-07-29T04:21:58;11.85;;;4.57;;
71305;SDS011;59097;46.858;18.632;2022-07-29T04:24:27;13.27;;;4.53;;
71305;SDS011;59097;46.858;18.632;2022-07-29T04:26:55;11.30;;;4.90;;
71305;SDS011;59097;46.858;18.632;2022-07-29T04:29:23;15.48;;;4.80;;
71305;SDS011;59097;46.858;18.632;2022-07-29T04:31:51;10.20;;;4.40;;
71305;SDS011;59097;46.858;18.632;2022-07-29T04:34:19;9.27;;;4.22;;
71305;SDS011;59097;46.858;18.632;2022-07-29T04:36:47;9.23;;;4.27;;
71305;SDS011;59097;46.858;18.632;2022-07-29T04:39:16;10.65;;;4.28;;
71305;SDS011;59097;46.858;18.632;2022-07-29T04:41:49;8.35;;;4.43;;
71305;SDS011;59097;46.858;18.632;2022-07-29T04:44:21;12.57;;;4.55;;
71305;SDS011;59097;46.858;18.632;2022-07-29T04:46:55;11.73;;;4.53;;
71305;SDS011;59097;46.858;18.632;2022-07-29T04:49:24;8.27;;;4.47;;
71305;SDS011;59097;46.858;18.632;2022-07-29T04:51:53;8.27;;;3.67;;
71305;SDS011;59097;46.858;18.632;2022-07-29T04:54:21;9.73;;;4.28;;
71305;SDS011;59097;46.858;18.632;2022-07-29T04:56:49;13.85;;;4.37;;
71305;SDS011;59097;46.858;18.632;2022-07-29T04:59:18;9.20;;;4.65;;
71305;SDS011;59097;46.858;18.632;2022-07-29T05:01:46;11.00;;;4.03;;
71305;SDS011;59097;46.858;18.632;2022-07-29T05:04:14;12.20;;;4.87;;
71305;SDS011;59097;46.858;18.632;2022-07-29T05:06:42;8.38;;;4.30;;
71305;SDS011;59097;46.858;18.632;2022-07-29T05:09:10;9.57;;;3.80;;
71305;SDS011;59097;46.858;18.632;2022-07-29T05:11:39;8.60;;;4.37;;
71305;SDS011;59097;46.858;18.632;2022-07-29T05:14:07;8.53;;;4.30;;
71305;SDS011;59097;46.858;18.632;2022-07-29T09:02:34;6.37;;;2.90;;
71305;SDS011;59097;46.858;18.632;2022-07-29T09:05:07;6.03;;;2.87;;
71305;SDS011;59097;46.858;18.632;2022-07-29T09:07:38;6.18;;;2.83;;
71305;SDS011;59097;46.858;18.632;2022-07-29T09:10:07;7.85;;;2.80;;
71305;SDS011;59097;46.858;18.632;2022-07-29T09:12:36;5.75;;;2.87;;
71305;SDS011;59097;46.858;18.632;2022-07-29T09:15:05;3.67;;;2.60;;
71305;SDS011;59097;46.858;18.632;2022-07-29T09:17:44;5.95;;;2.50;;
71305;SDS011;59097;46.858;18.632;2022-07-29T09:20:18;6.95;;;3.10;;
71305;SDS011;59097;46.858;18.632;2022-07-29T09:22:48;5.32;;;2.70;;
71305;SDS011;59097;46.858;18.632;2022-07-29T09:25:34;3.53;;;2.70;;
71305;SDS011;59097;46.858;18.632;2022-07-29T09:28:14;5.10;;;2.83;;
71305;SDS011;59097;46.858;18.632;2022-07-29T09:30:52;5.20;;;2.40;;
71305;SDS011;59097;46.858;18.632;2022-07-29T09:33:23;4.57;;;2.92;;
71305;SDS011;59097;46.858;18.632;2022-07-29T09:38:35;8.13;;;2.80;;
71305;SDS011;59097;46.858;18.632;2022-07-29T09:41:05;6.10;;;2.70;;
71305;SDS011;59097;46.858;18.632;2022-07-29T09:43:36;5.78;;;2.80;;
71305;SDS011;59097;46.858;18.632;2022-07-29T09:46:15;3.92;;;2.80;;
71305;SDS011;59097;46.858;18.632;2022-07-29T09:48:43;4.82;;;2.58;;
71305;SDS011;59097;46.858;18.632;2022-07-29T09:51:18;4.93;;;3.00;;
71305;SDS011;59097;46.858;18.632;2022-07-29T09:53:55;7.40;;;2.80;;
71305;SDS011;59097;46.858;18.632;2022-07-29T09:56:37;5.18;;;2.90;;
71305;SDS011;59097;46.858;18.632;2022-07-29T09:59:12;5.87;;;2.97;;
71305;SDS011;59097;46.858;18.632;2022-07-29T10:01:40;5.90;;;3.10;;
71305;SDS011;59097;46.858;18.632;2022-07-29T10:04:09;5.87;;;2.70;;
71305;SDS011;59097;46.858;18.632;2022-07-29T10:07:13;6.60;;;2.90;;
71305;SDS011;59097;46.858;18.632;2022-07-29T10:09:38;5.78;;;2.70;;
71305;SDS011;59097;46.858;18.632;2022-07-29T10:12:11;5.37;;;3.12;;
71305;SDS011;59097;46.858;18.632;2022-07-29T10:14:44;4.78;;;2.65;;
71305;SDS011;59097;46.858;18.632;2022-07-29T10:17:13;3.72;;;2.30;;
71305;SDS011;59097;46.858;18.632;2022-07-29T10:19:43;6.03;;;2.50;;
71305;SDS011;59097;46.858;18.632;2022-07-29T10:22:12;7.25;;;2.90;;
71305;SDS011;59097;46.858;18.632;2022-07-29T10:24:41;5.03;;;2.47;;
71305;SDS011;59097;46.858;18.632;2022-07-29T10:27:09;6.68;;;2.75;;
71305;SDS011;59097;46.858;18.632;2022-07-29T10:29:37;6.07;;;2.70;;
71305;SDS011;59097;46.858;18.632;2022-07-29T10:35:06;5.70;;;2.87;;
71305;SDS011;59097;46.858;18.632;2022-07-29T10:38:10;6.22;;;3.05;;
71305;SDS011;59097;46.858;18.632;2022-07-29T10:43:47;5.40;;;3.30;;
71305;SDS011;59097;46.858;18.632;2022-07-29T10:46:21;5.73;;;2.90;;
71305;SDS011;59097;46.858;18.632;2022-07-29T10:51:52;4.78;;;3.40;;
71305;SDS011;59097;46.858;18.632;2022-07-29T10:57:26;5.05;;;3.30;;
71305;SDS011;59097;46.858;18.632;2022-07-29T11:00:28;7.07;;;2.93;;
71305;SDS011;59097;46.858;18.632;2022-07-29T11:02:58;7.90;;;2.87;;
71305;SDS011;59097;46.858;18.632;2022-07-29T11:05:41;4.93;;;3.00;;
71305;SDS011;59097;46.858;18.632;2022-07-29T11:08:23;6.87;;;2.95;;
71305;SDS011;59097;46.858;18.632;2022-07-29T11:13:49;5.07;;;3.10;;
71305;SDS011;59097;46.858;18.632;2022-07-29T11:16:20;9.15;;;3.30;;
71305;SDS011;59097;46.858;18.632;2022-07-29T11:19:18;5.32;;;3.20;;
71305;SDS011;59097;46.858;18.632;2022-07-29T11:21:56;7.95;;;2.60;;
71305;SDS011;59097;46.858;18.632;2022-07-29T11:24:28;4.25;;;2.45;;
71305;SDS011;59097;46.858;18.632;2022-07-29T11:27:09;4.60;;;2.87;;
71305;SDS011;59097;46.858;18.632;2022-07-29T11:29:47;4.40;;;2.35;;
71305;SDS011;59097;46.858;18.632;2022-07-29T11:32:22;3.80;;;2.60;;
71305;SDS011;59097;46.858;18.632;2022-07-29T11:35:17;6.00;;;2.60;;
71305;SDS011;59097;46.858;18.632;2022-07-29T11:43:53;6.65;;;3.03;;
71305;SDS011;59097;46.858;18.632;2022-07-29T11:49:24;6.75;;;2.83;;
71305;SDS011;59097;46.858;18.632;2022-07-29T11:52:00;7.03;;;3.10;;
71305;SDS011;59097;46.858;18.632;2022-07-29T11:54:50;4.23;;;2.40;;
71305;SDS011;59097;46.858;18.632;2022-07-29T11:57:27;5.12;;;2.70;;
71305;SDS011;59097;46.858;18.632;2022-07-29T12:00:07;5.97;;;3.12;;
71305;SDS011;59097;46.858;18.632;2022-07-29T12:02:42;4.55;;;2.80;;
71305;SDS011;59097;46.858;18.632;2022-07-29T12:05:16;5.35;;;2.90;;
71305;SDS011;59097;46.858;18.632;2022-07-29T12:08:14;5.00;;;2.73;;
71305;SDS011;59097;46.858;18.632;2022-07-29T12:10:50;4.68;;;2.87;;
71305;SDS011;59097;46.858;18.632;2022-07-29T12:13:20;5.40;;;3.10;;
71305;SDS011;59097;46.858;18.632;2022-07-29T12:15:53;3.47;;;2.80;;
71305;SDS011;59097;46.858;18.632;2022-07-29T12:18:27;4.07;;;2.80;;
71305;SDS011;59097;46.858;18.632;2022-07-29T12:21:00;4.77;;;2.77;;
71305;SDS011;59097;46.858;18.632;2022-07-29T12:23:33;5.07;;;2.80;;
71305;SDS011;59097;46.858;18.632;2022-07-29T12:26:05;5.22;;;3.10;;
71305;SDS011;59097;46.858;18.632;2022-07-29T12:28:51;5.53;;;3.00;;
71305;SDS011;59097;46.858;18.632;2022-07-29T12:31:21;5.62;;;2.87;;
71305;SDS011;59097;46.858;18.632;2022-07-29T12:34:13;5.07;;;2.50;;
71305;SDS011;59097;46.858;18.632;2022-07-29T12:36:43;9.65;;;2.97;;
71305;SDS011;59097;46.858;18.632;2022-07-29T12:39:12;14.50;;;3.70;;
71305;SDS011;59097;46.858;18.632;2022-07-29T12:41:42;5.90;;;2.85;;
71305;SDS011;59097;46.858;18.632;2022-07-29T12:44:12;3.30;;;2.87;;
71305;SDS011;59097;46.858;18.632;2022-07-29T12:46:40;6.03;;;3.50;;
71305;SDS011;59097;46.858;18.632;2022-07-29T12:49:08;3.50;;;2.80;;
71305;SDS011;59097;46.858;18.632;2022-07-29T12:51:38;4.90;;;3.00;;
71305;SDS011;59097;46.858;18.632;2022-07-29T12:54:12;4.97;;;3.25;;
71305;SDS011;59097;46.858;18.632;2022-07-29T12:56:44;5.25;;;2.97;;
71305;SDS011;59097;46.858;18.632;2022-07-29T13:01:43;7.32;;;3.42;;
71305;SDS011;59097;46.858;18.632;2022-07-29T13:04:23;5.18;;;3.40;;
71305;SDS011;59097;46.858;18.632;2022-07-29T13:07:03;5.32;;;3.40;;
71305;SDS011;59097;46.858;18.632;2022-07-29T13:12:06;8.40;;;3.40;;
71305;SDS011;59097;46.858;18.632;2022-07-29T13:14:42;7.53;;;3.28;;
71305;SDS011;59097;46.858;18.632;2022-07-29T13:17:22;5.12;;;3.37;;
71305;SDS011;59097;46.858;18.632;2022-07-29T13:19:52;6.12;;;3.15;;
71305;SDS011;59097;46.858;18.632;2022-07-29T13:22:35;5.68;;;3.65;;
71305;SDS011;59097;46.858;18.632;2022-07-29T13:25:04;5.03;;;3.17;;
71305;SDS011;59097;46.858;18.632;2022-07-29T13:27:36;5.40;;;3.45;;
71305;SDS011;59097;46.858;18.632;2022-07-29T13:30:07;8.23;;;3.05;;
71305;SDS011;59097;46.858;18.632;2022-07-29T13:32:36;8.32;;;3.47;;
71305;SDS011;59097;46.858;18.632;2022-07-29T13:35:06;6.40;;;3.50;;
71305;SDS011;59097;46.858;18.632;2022-07-29T13:37:35;5.40;;;3.27;;
71305;SDS011;59097;46.858;18.632;2022-07-29T13:40:09;3.70;;;3.30;;
71305;SDS011;59097;46.858;18.632;2022-07-29T13:42:38;7.00;;;3.70;;
71305;SDS011;59097;46.858;18.632;2022-07-29T13:45:06;6.12;;;3.47;;
71305;SDS011;59097;46.858;18.632;2022-07-29T13:47:36;6.20;;;3.78;;
71305;SDS011;59097;46.858;18.632;2022-07-29T13:50:05;4.70;;;3.47;;
71305;SDS011;59097;46.858;18.632;2022-07-29T13:52:34;6.47;;;3.35;;
71305;SDS011;59097;46.858;18.632;2022-07-29T13:55:03;5.57;;;3.70;;
71305;SDS011;59097;46.858;18.632;2022-07-29T13:57:31;4.95;;;3.60;;
71305;SDS011;59097;46.858;18.632;2022-07-29T13:59:59;8.80;;;3.53;;
71305;SDS011;59097;46.858;18.632;2022-07-29T14:02:34;4.40;;;3.50;;
71305;SDS011;59097;46.858;18.632;2022-07-29T14:05:03;6.07;;;3.55;;
71305;SDS011;59097;46.858;18.632;2022-07-29T14:07:35;5.47;;;3.97;;
71305;SDS011;59097;46.858;18.632;2022-07-29T14:10:04;6.97;;;3.55;;
71305;SDS011;59097;46.858;18.632;2022-07-29T14:12:33;5.40;;;3.37;;
71305;SDS011;59097;46.858;18.632;2022-07-29T14:15:01;6.13;;;3.40;;
71305;SDS011;59097;46.858;18.632;2022-07-29T14:17:30;4.70;;;3.10;;
71305;SDS011;59097;46.858;18.632;2022-07-29T14:19:58;6.95;;;3.70;;
71305;SDS011;59097;46.858;18.632;2022-07-29T14:22:26;5.47;;;3.42;;
71305;SDS011;59097;46.858;18.632;2022-07-29T14:24:55;6.18;;;3.70;;
71305;SDS011;59097;46.858;18.632;2022-07-29T14:27:23;8.80;;;3.70;;
71305;SDS011;59097;46.858;18.632;2022-07-29T14:30:05;6.97;;;3.78;;
71305;SDS011;59097;46.858;18.632;2022-07-29T14:32:33;6.35;;;3.60;;
71305;SDS011;59097;46.858;18.632;2022-07-29T14:35:01;8.63;;;3.60;;
71305;SDS011;59097;46.858;18.632;2022-07-29T14:37:30;6.47;;;3.60;;
71305;SDS011;59097;46.858;18.632;2022-07-29T14:40:07;4.93;;;3.40;;
71305;SDS011;59097;46.858;18.632;2022-07-29T14:42:37;10.32;;;3.53;;
71305;SDS011;59097;46.858;18.632;2022-07-29T14:45:06;9.25;;;3.70;;
71305;SDS011;59097;46.858;18.632;2022-07-29T14:47:35;8.13;;;3.60;;
71305;SDS011;59097;46.858;18.632;2022-07-29T14:50:05;5.97;;;3.47;;
71305;SDS011;59097;46.858;18.632;2022-07-29T14:52:34;8.57;;;3.20;;
71305;SDS011;59097;46.858;18.632;2022-07-29T14:55:03;5.90;;;3.60;;
71305;SDS011;59097;46.858;18.632;2022-07-29T14:57:43;6.28;;;3.90;;
71305;SDS011;59097;46.858;18.632;2022-07-29T15:00:11;5.95;;;3.37;;
71305;SDS011;59097;46.858;18.632;2022-07-29T15:02:39;6.82;;;3.50;;
71305;SDS011;59097;46.858;18.632;2022-07-29T15:05:27;4.90;;;3.33;;
71305;SDS011;59097;46.858;18.632;2022-07-29T15:07:55;6.87;;;3.60;;
71305;SDS011;59097;46.858;18.632;2022-07-29T15:10:23;7.37;;;4.35;;
71305;SDS011;59097;46.858;18.632;2022-07-29T15:12:54;5.80;;;3.25;;
71305;SDS011;59097;46.858;18.632;2022-07-29T15:15:22;6.57;;;3.70;;
71305;SDS011;59097;46.858;18.632;2022-07-29T15:17:50;7.63;;;3.60;;
71305;SDS011;59097;46.858;18.632;2022-07-29T15:20:19;5.72;;;3.50;;
71305;SDS011;59097;46.858;18.632;2022-07-29T15:22:47;6.93;;;3.80;;
71305;SDS011;59097;46.858;18.632;2022-07-29T15:25:15;7.03;;;3.78;;
71305;SDS011;59097;46.858;18.632;2022-07-29T15:27:43;5.65;;;4.00;;
71305;SDS011;59097;46.858;18.632;2022-07-29T15:30:19;5.83;;;3.37;;
71305;SDS011;59097;46.858;18.632;2022-07-29T15:33:03;8.15;;;3.58;;
71305;SDS011;59097;46.858;18.632;2022-07-29T15:35:31;8.00;;;3.85;;
71305;SDS011;59097;46.858;18.632;2022-07-29T15:38:07;5.70;;;3.62;;
71305;SDS011;59097;46.858;18.632;2022-07-29T15:40:36;6.82;;;3.80;;
71305;SDS011;59097;46.858;18.632;2022-07-29T15:43:05;5.90;;;3.50;;
71305;SDS011;59097;46.858;18.632;2022-07-29T15:45:38;4.65;;;3.50;;
71305;SDS011;59097;46.858;18.632;2022-07-29T15:48:08;4.75;;;3.90;;
71305;SDS011;59097;46.858;18.632;2022-07-29T15:50:41;10.63;;;3.90;;
71305;SDS011;59097;46.858;18.632;2022-07-29T15:53:13;8.60;;;3.92;;
71305;SDS011;59097;46.858;18.632;2022-07-29T15:55:41;7.37;;;3.83;;
71305;SDS011;59097;46.858;18.632;2022-07-29T15:58:10;6.28;;;3.75;;
71305;SDS011;59097;46.858;18.632;2022-07-29T16:00:39;10.13;;;4.00;;
71305;SDS011;59097;46.858;18.632;2022-07-29T16:03:07;6.72;;;4.10;;
71305;SDS011;59097;46.858;18.632;2022-07-29T16:05:35;5.05;;;3.78;;
71305;SDS011;59097;46.858;18.632;2022-07-29T16:08:03;7.60;;;4.13;;
71305;SDS011;59097;46.858;18.632;2022-07-29T16:10:32;8.32;;;3.70;;
71305;SDS011;59097;46.858;18.632;2022-07-29T16:13:00;5.53;;;3.90;;
71305;SDS011;59097;46.858;18.632;2022-07-29T16:15:28;5.20;;;3.78;;
71305;SDS011;59097;46.858;18.632;2022-07-29T16:17:57;5.70;;;4.18;;
71305;SDS011;59097;46.858;18.632;2022-07-29T16:20:25;6.53;;;4.40;;
71305;SDS011;59097;46.858;18.632;2022-07-29T16:22:53;10.15;;;4.20;;
71305;SDS011;59097;46.858;18.632;2022-07-29T16:25:21;6.03;;;4.07;;
71305;SDS011;59097;46.858;18.632;2022-07-29T16:28:09;8.70;;;3.97;;
71305;SDS011;59097;46.858;18.632;2022-07-29T16:30:38;5.97;;;4.12;;
71305;SDS011;59097;46.858;18.632;2022-07-29T16:33:06;6.97;;;4.00;;
71305;SDS011;59097;46.858;18.632;2022-07-29T16:35:34;4.32;;;3.78;;
71305;SDS011;59097;46.858;18.632;2022-07-29T16:38:06;6.00;;;4.45;;
71305;SDS011;59097;46.858;18.632;2022-07-29T16:40:34;7.00;;;4.60;;
71305;SDS011;59097;46.858;18.632;2022-07-29T16:43:03;6.87;;;4.57;;
71305;SDS011;59097;46.858;18.632;2022-07-29T16:45:33;7.77;;;4.50;;
71305;SDS011;59097;46.858;18.632;2022-07-29T16:48:12;4.93;;;4.20;;
71305;SDS011;59097;46.858;18.632;2022-07-29T16:50:44;11.85;;;4.72;;
71305;SDS011;59097;46.858;18.632;2022-07-29T16:53:12;5.85;;;4.32;;
71305;SDS011;59097;46.858;18.632;2022-07-29T16:55:40;9.48;;;4.28;;
71305;SDS011;59097;46.858;18.632;2022-07-29T16:58:09;6.87;;;4.50;;
71305;SDS011;59097;46.858;18.632;2022-07-29T17:00:37;5.95;;;4.30;;
71305;SDS011;59097;46.858;18.632;2022-07-29T17:03:08;8.20;;;4.60;;
71305;SDS011;59097;46.858;18.632;2022-07-29T17:05:39;5.57;;;4.40;;
71305;SDS011;59097;46.858;18.632;2022-07-29T17:08:21;5.32;;;4.30;;
71305;SDS011;59097;46.858;18.632;2022-07-29T17:10:49;8.13;;;4.40;;
71305;SDS011;59097;46.858;18.632;2022-07-29T17:13:17;8.73;;;4.72;;
71305;SDS011;59097;46.858;18.632;2022-07-29T17:15:46;8.73;;;5.22;;
71305;SDS011;59097;46.858;18.632;2022-07-29T17:18:14;8.77;;;4.90;;
71305;SDS011;59097;46.858;18.632;2022-07-29T17:20:42;9.80;;;5.12;;
71305;SDS011;59097;46.858;18.632;2022-07-29T17:23:10;8.00;;;4.80;;
71305;SDS011;59097;46.858;18.632;2022-07-29T17:25:39;12.57;;;5.40;;
71305;SDS011;59097;46.858;18.632;2022-07-29T17:28:09;6.72;;;4.93;;
71305;SDS011;59097;46.858;18.632;2022-07-29T17:30:38;9.15;;;5.10;;
71305;SDS011;59097;46.858;18.632;2022-07-29T17:33:07;8.15;;;4.95;;
71305;SDS011;59097;46.858;18.632;2022-07-29T17:35:35;8.77;;;4.77;;
71305;SDS011;59097;46.858;18.632;2022-07-29T17:38:21;9.70;;;5.40;;
71305;SDS011;59097;46.858;18.632;2022-07-29T17:40:49;6.72;;;5.20;;
71305;SDS011;59097;46.858;18.632;2022-07-29T17:43:17;6.43;;;5.40;;
71305;SDS011;59097;46.858;18.632;2022-07-29T17:45:46;9.60;;;5.22;;
71305;SDS011;59097;46.858;18.632;2022-07-29T17:48:17;10.10;;;5.10;;
71305;SDS011;59097;46.858;18.632;2022-07-29T17:50:46;6.97;;;5.55;;
71305;SDS011;59097;46.858;18.632;2022-07-29T17:53:15;9.32;;;5.80;;
71305;SDS011;59097;46.858;18.632;2022-07-29T17:55:49;6.47;;;5.75;;
71305;SDS011;59097;46.858;18.632;2022-07-29T17:58:17;11.00;;;5.65;;
71305;SDS011;59097;46.858;18.632;2022-07-29T18:00:45;10.37;;;5.30;;
71305;SDS011;59097;46.858;18.632;2022-07-29T18:03:14;7.90;;;5.05;;
71305;SDS011;59097;46.858;18.632;2022-07-29T18:05:43;6.95;;;5.55;;
71305;SDS011;59097;46.858;18.632;2022-07-29T18:08:11;11.18;;;5.40;;
71305;SDS011;59097;46.858;18.632;2022-07-29T18:10:39;8.30;;;5.22;;
71305;SDS011;59097;46.858;18.632;2022-07-29T18:13:08;11.60;;;5.50;;
71305;SDS011;59097;46.858;18.632;2022-07-29T18:15:38;7.68;;;5.12;;
71305;SDS011;59097;46.858;18.632;2022-07-29T18:18:07;10.52;;;5.60;;
71305;SDS011;59097;46.858;18.632;2022-07-29T18:20:35;8.05;;;5.45;;
71305;SDS011;59097;46.858;18.632;2022-07-29T18:23:04;11.65;;;5.65;;
71305;SDS011;59097;46.858;18.632;2022-07-29T18:25:32;12.27;;;5.63;;
71305;SDS011;59097;46.858;18.632;2022-07-29T18:28:00;10.65;;;6.25;;
71305;SDS011;59097;46.858;18.632;2022-07-29T18:30:28;10.98;;;5.70;;
71305;SDS011;59097;46.858;18.632;2022-07-29T18:32:57;8.07;;;5.65;;
71305;SDS011;59097;46.858;18.632;2022-07-29T18:35:46;14.55;;;6.40;;
71305;SDS011;59097;46.858;18.632;2022-07-29T18:38:16;14.40;;;5.90;;
71305;SDS011;59097;46.858;18.632;2022-07-29T18:40:44;14.23;;;5.55;;
71305;SDS011;59097;46.858;18.632;2022-07-29T18:43:12;10.02;;;5.55;;
71305;SDS011;59097;46.858;18.632;2022-07-29T18:45:41;9.93;;;5.65;;
71305;SDS011;59097;46.858;18.632;2022-07-29T18:48:09;15.48;;;6.03;;
71305;SDS011;59097;46.858;18.632;2022-07-29T18:50:40;10.10;;;6.33;;
71305;SDS011;59097;46.858;18.632;2022-07-29T18:53:08;10.85;;;5.80;;
71305;SDS011;59097;46.858;18.632;2022-07-29T18:55:36;7.30;;;5.65;;
71305;SDS011;59097;46.858;18.632;2022-07-29T18:58:04;8.82;;;5.62;;
71305;SDS011;59097;46.858;18.632;2022-07-29T19:00:33;19.27;;;6.47;;
71305;SDS011;59097;46.858;18.632;2022-07-29T19:03:01;9.10;;;7.17;;
71305;SDS011;59097;46.858;18.632;2022-07-29T19:05:30;9.35;;;6.78;;
71305;SDS011;59097;46.858;18.632;2022-07-29T19:07:59;7.87;;;6.10;;
71305;SDS011;59097;46.858;18.632;2022-07-29T19:10:27;9.45;;;5.60;;
71305;SDS011;59097;46.858;18.632;2022-07-29T19:12:55;9.27;;;6.20;;
71305;SDS011;59097;46.858;18.632;2022-07-29T19:15:24;8.97;;;5.67;;
71305;SDS011;59097;46.858;18.632;2022-07-29T19:17:53;9.65;;;5.47;;
71305;SDS011;59097;46.858;18.632;2022-07-29T19:20:27;11.70;;;5.62;;
71305;SDS011;59097;46.858;18.632;2022-07-29T19:22:55;7.35;;;5.50;;
71305;SDS011;59097;46.858;18.632;2022-07-29T19:25:24;7.85;;;5.72;;
71305;SDS011;59097;46.858;18.632;2022-07-29T19:27:52;8.83;;;5.57;;
71305;SDS011;59097;46.858;18.632;2022-07-29T19:30:20;12.73;;;6.25;;
71305;SDS011;59097;46.858;18.632;2022-07-29T19:32:48;9.77;;;6.00;;
71305;SDS011;59097;46.858;18.632;2022-07-29T19:35:18;9.77;;;5.80;;
71305;SDS011;59097;46.858;18.632;2022-07-29T19:37:55;9.43;;;6.07;;
71305;SDS011;59097;46.858;18.632;2022-07-29T19:40:25;10.23;;;5.57;;
71305;SDS011;59097;46.858;18.632;2022-07-29T19:42:54;7.32;;;5.35;;